createdAt,value
2023-03-26T00:02:19.254Z,6.63
2023-03-26T00:07:23.261Z,7.40
2023-03-26T00:12:26.696Z,8.53
2023-03-26T00:17:30.265Z,9.00
2023-03-26T00:22:33.457Z,9.40
2023-03-26T00:27:36.792Z,7.17
2023-03-26T00:32:40.420Z,7.03
2023-03-26T00:37:46.425Z,6.27
2023-03-26T00:42:49.736Z,7.40
2023-03-26T00:47:53.042Z,6.03
2023-03-26T00:52:56.290Z,7.60
2023-03-26T00:57:59.674Z,9.20
2023-03-26T01:03:05.096Z,8.43
2023-03-26T01:08:27.286Z,9.43
2023-03-26T01:13:38.585Z,6.50
2023-03-26T01:18:41.834Z,6.97
2023-03-26T01:23:51.663Z,5.63
2023-03-26T01:28:59.200Z,5.20
2023-03-26T01:34:22.801Z,6.30
2023-03-26T01:39:43.055Z,7.13
2023-03-26T01:45:08.487Z,6.53
2023-03-26T01:50:12.476Z,7.77
2023-03-26T01:55:16.352Z,6.67
2023-03-26T02:00:38.272Z,5.13
2023-03-26T02:05:53.227Z,6.27
2023-03-26T02:10:59.451Z,6.27
2023-03-26T02:16:05.452Z,7.23
2023-03-26T02:21:20.629Z,7.00
2023-03-26T02:26:25.546Z,6.03
2023-03-26T02:31:29.000Z,5.33
2023-03-26T02:36:32.406Z,4.17
2023-03-26T02:41:35.989Z,3.90
2023-03-26T02:46:39.303Z,2.97
2023-03-26T02:51:42.739Z,4.00
2023-03-26T02:56:45.950Z,2.43
2023-03-26T03:01:49.210Z,2.10
2023-03-26T03:06:57.858Z,3.10
2023-03-26T03:12:01.181Z,2.47
2023-03-26T03:17:04.683Z,1.70
2023-03-26T03:22:07.831Z,2.27
2023-03-26T03:27:11.112Z,2.77
2023-03-26T03:32:14.422Z,2.83
2023-03-26T03:37:20.341Z,3.47
2023-03-26T03:42:23.679Z,3.63
2023-03-26T03:47:26.909Z,3.17
2023-03-26T03:52:30.155Z,4.03
2023-03-26T03:57:33.715Z,2.70
2023-03-26T04:02:37.168Z,2.13
2023-03-26T04:07:40.796Z,4.47
2023-03-26T04:12:44.309Z,3.67
2023-03-26T04:17:47.661Z,3.07
2023-03-26T04:22:51.434Z,3.13
2023-03-26T04:27:58.781Z,5.13
2023-03-26T04:33:06.821Z,7.27
2023-03-26T04:38:11.715Z,3.40
2023-03-26T04:43:18.310Z,4.37
2023-03-26T04:48:22.334Z,3.00
2023-03-26T04:53:25.687Z,5.17
2023-03-26T04:58:33.319Z,5.13
2023-03-26T05:03:39.634Z,5.37
2023-03-26T05:08:42.967Z,4.10
2023-03-26T05:13:47.479Z,4.23
2023-03-26T05:18:51.872Z,3.90
2023-03-26T05:23:55.180Z,4.97
2023-03-26T05:28:58.832Z,4.33
2023-03-26T05:34:02.769Z,3.73
2023-03-26T05:39:06.484Z,4.17
2023-03-26T05:44:10.413Z,2.97
2023-03-26T05:49:13.832Z,4.90
2023-03-26T05:54:17.395Z,4.23
2023-03-26T05:59:20.938Z,3.30
2023-03-26T06:04:24.333Z,5.10
2023-03-26T06:09:27.709Z,3.87
2023-03-26T06:14:31.283Z,5.93
2023-03-26T06:19:34.571Z,6.07
2023-03-26T06:24:41.451Z,4.77
2023-03-26T06:29:44.757Z,4.77
2023-03-26T06:34:47.999Z,4.30
2023-03-26T06:39:51.499Z,6.03
2023-03-26T06:44:54.883Z,6.07
2023-03-26T06:49:58.112Z,5.13
2023-03-26T06:55:01.444Z,4.60
2023-03-26T07:00:06.376Z,4.47
2023-03-26T07:05:09.967Z,3.40
2023-03-26T07:10:13.604Z,3.00
2023-03-26T07:15:18.625Z,2.43
2023-03-26T07:20:22.345Z,2.60
2023-03-26T07:25:26.116Z,2.17
2023-03-26T07:30:39.416Z,1.40
2023-03-26T07:35:56.046Z,2.50
2023-03-26T07:41:14.776Z,2.63
2023-03-26T07:46:24.805Z,2.70
2023-03-26T07:51:29.334Z,1.87
2023-03-26T07:57:12.318Z,2.63
2023-03-26T08:02:21.151Z,1.47
2023-03-26T08:07:54.974Z,2.87
2023-03-26T08:13:25.330Z,2.23
2023-03-26T08:18:39.416Z,1.63
2023-03-26T08:24:13.855Z,3.27
2023-03-26T08:29:52.172Z,1.80
2023-03-26T08:34:57.958Z,2.93
2023-03-26T08:40:01.618Z,2.70
2023-03-26T08:45:34.256Z,2.70
2023-03-26T08:51:05.541Z,2.07
2023-03-26T08:56:27.044Z,2.30
2023-03-26T09:01:42.823Z,3.43
2023-03-26T09:06:58.500Z,2.17
2023-03-26T09:12:20.720Z,1.53
2023-03-26T09:17:46.530Z,1.53
2023-03-26T09:22:52.868Z,1.57
2023-03-26T09:28:30.761Z,2.53
2023-03-26T09:33:48.812Z,5.50
2023-03-26T09:39:02.829Z,4.07
2023-03-26T09:44:21.659Z,2.97
2023-03-26T09:49:43.504Z,3.57
2023-03-26T09:55:11.368Z,3.43
2023-03-26T10:00:43.169Z,3.53
2023-03-26T10:06:10.185Z,2.27
2023-03-26T10:12:03.627Z,3.43
2023-03-26T10:17:07.188Z,2.43
2023-03-26T10:22:13.309Z,2.47
2023-03-26T10:27:34.853Z,2.67
2023-03-26T10:33:26.403Z,2.80
2023-03-26T10:39:09.879Z,1.93
2023-03-26T10:44:49.942Z,3.57
2023-03-26T10:50:23.343Z,2.83
2023-03-26T10:55:47.795Z,4.77
2023-03-26T11:01:29.835Z,3.17
2023-03-26T11:06:39.772Z,2.30
2023-03-26T11:11:56.924Z,3.80
2023-03-26T11:17:10.308Z,2.60
2023-03-26T11:22:42.987Z,1.13
2023-03-26T11:28:01.848Z,1.67
2023-03-26T11:33:10.505Z,1.13
2023-03-26T11:38:22.707Z,1.97
2023-03-26T11:43:35.612Z,2.30
2023-03-26T11:48:44.940Z,4.10
2023-03-26T11:53:49.209Z,1.53
2023-03-26T11:59:11.755Z,2.30
2023-03-26T12:04:17.471Z,2.10
2023-03-26T12:09:21.322Z,2.40
2023-03-26T12:27:48.374Z,0.63
2023-03-26T12:32:57.085Z,1.93
2023-03-26T12:38:24.845Z,1.93
2023-03-26T12:44:56.580Z,1.10
2023-03-26T12:49:12.291Z,2.43
2023-03-26T12:54:50.788Z,3.27
2023-03-26T13:00:24.380Z,2.53
2023-03-26T13:05:45.397Z,2.17
2023-03-26T13:11:13.621Z,1.63
2023-03-26T13:16:41.404Z,2.87
2023-03-26T13:22:21.736Z,2.13
2023-03-26T13:27:37.453Z,2.57
2023-03-26T13:32:41.692Z,3.07
2023-03-26T13:37:51.389Z,3.47
2023-03-26T13:43:41.552Z,1.73
2023-03-26T13:49:17.895Z,2.30
2023-03-26T13:54:24.556Z,1.87
2023-03-26T13:59:32.436Z,2.10
2023-03-26T14:04:48.238Z,3.50
2023-03-26T14:10:13.609Z,1.60
2023-03-26T14:15:29.224Z,1.93
2023-03-26T14:20:34.693Z,2.17
2023-03-26T14:26:07.238Z,2.33
2023-03-26T14:31:51.771Z,1.80
2023-03-26T14:37:27.912Z,3.33
2023-03-26T14:42:40.040Z,3.87
2023-03-26T14:48:26.942Z,3.17
2023-03-26T14:53:44.750Z,2.70
2023-03-26T14:59:35.665Z,2.97
2023-03-26T15:05:17.583Z,3.63
2023-03-26T15:10:35.473Z,3.63
2023-03-26T15:16:09.826Z,5.30
2023-03-26T15:21:37.752Z,1.57
2023-03-26T15:26:59.733Z,3.80
2023-03-26T15:32:34.742Z,5.03
2023-03-26T15:37:54.891Z,2.17
2023-03-26T15:43:23.215Z,3.33
2023-03-26T15:48:37.971Z,2.77
2023-03-26T15:54:05.217Z,1.80
2023-03-26T15:59:17.197Z,2.07
2023-03-26T16:04:52.046Z,2.37
2023-03-26T16:10:19.859Z,4.57
2023-03-26T16:15:35.290Z,2.60
2023-03-26T16:20:58.007Z,2.10
2023-03-26T16:26:14.290Z,2.40
2023-03-26T16:31:38.225Z,4.17
2023-03-26T16:36:48.551Z,2.37
2023-03-26T16:42:06.248Z,2.80
2023-03-26T16:47:52.710Z,2.27
2023-03-26T16:53:02.931Z,3.10
2023-03-26T16:58:30.493Z,4.90
2023-03-26T17:03:48.608Z,4.57
2023-03-26T17:09:05.575Z,3.00
2023-03-26T17:14:14.321Z,3.20
2023-03-26T17:19:45.686Z,2.97
2023-03-26T17:24:59.531Z,3.63
2023-03-26T17:30:32.710Z,5.83
2023-03-26T17:35:47.669Z,5.97
2023-03-26T17:41:01.643Z,6.20
2023-03-26T17:46:32.776Z,10.43
2023-03-26T17:51:58.762Z,7.03
2023-03-26T17:57:14.601Z,11.27
2023-03-26T18:02:29.839Z,10.17
2023-03-26T18:07:47.115Z,4.23
2023-03-26T18:13:38.924Z,4.97
2023-03-26T18:19:05.044Z,5.30
2023-03-26T18:24:17.406Z,8.77
2023-03-26T18:29:27.032Z,8.73
2023-03-26T18:34:34.311Z,11.10
2023-03-26T18:39:44.716Z,9.37
2023-03-26T18:44:59.699Z,12.40
2023-03-26T18:50:08.706Z,18.27
2023-03-26T18:55:17.789Z,15.23
2023-03-26T19:05:50.108Z,38.13
2023-03-26T19:10:56.358Z,23.57
2023-03-26T19:16:08.993Z,11.53
2023-03-26T19:21:16.932Z,8.77
2023-03-26T19:26:23.444Z,10.20
2023-03-26T19:31:39.128Z,9.80
2023-03-26T19:37:01.941Z,8.13
2023-03-26T19:42:08.026Z,8.97
2023-03-26T19:47:39.108Z,5.33
2023-03-26T19:53:25.292Z,8.83
2023-03-26T19:58:30.385Z,7.40
2023-03-26T20:03:44.587Z,11.57
2023-03-26T20:08:51.478Z,7.33
2023-03-26T20:13:59.474Z,5.80
2023-03-26T20:19:04.942Z,9.17
2023-03-26T20:24:26.859Z,8.47
2023-03-26T20:29:33.254Z,9.50
2023-03-26T20:34:37.514Z,9.47
2023-03-26T20:39:42.324Z,10.23
2023-03-26T20:44:45.862Z,5.73
2023-03-26T20:49:49.831Z,15.80
2023-03-26T20:54:53.923Z,10.27
2023-03-26T20:59:57.622Z,11.63
2023-03-26T21:05:02.009Z,9.10
2023-03-26T21:10:06.678Z,5.87
2023-03-26T21:15:20.854Z,8.10
2023-03-26T21:20:33.160Z,9.63
2023-03-26T21:25:56.837Z,8.90
2023-03-26T21:31:00.656Z,10.77
2023-03-26T21:36:04.824Z,11.77
2023-03-26T21:41:08.537Z,9.23
2023-03-26T21:46:12.746Z,7.67
2023-03-26T21:51:19.452Z,7.87
2023-03-26T21:56:47.772Z,13.90
2023-03-26T22:02:03.130Z,14.93
2023-03-26T22:07:06.306Z,12.23
2023-03-26T22:12:11.075Z,10.73
2023-03-26T22:17:14.507Z,18.93
2023-03-26T22:22:17.923Z,16.40
2023-03-26T22:27:21.456Z,28.10
2023-03-26T22:32:24.814Z,18.63
2023-03-26T22:37:37.669Z,16.63
2023-03-26T22:42:41.754Z,15.00
2023-03-26T22:47:45.332Z,13.23
2023-03-26T22:52:49.037Z,17.80
2023-03-26T22:57:53.650Z,15.87
2023-03-26T23:03:01.042Z,12.07
2023-03-26T23:08:04.618Z,16.63
2023-03-26T23:13:08.109Z,12.47
2023-03-26T23:18:12.178Z,9.50
2023-03-26T23:23:15.419Z,9.43
2023-03-26T23:28:21.203Z,12.93
2023-03-26T23:33:30.548Z,12.50
2023-03-26T23:38:43.870Z,13.97
2023-03-26T23:43:55.764Z,11.73
2023-03-26T23:49:05.713Z,15.63
2023-03-26T23:54:09.404Z,9.67
2023-03-26T23:59:12.823Z,10.00
